sensor_id;sensor_type;location;lat;lon;timestamp;temperature;humidity
51476;DHT22;37554;50.362;7.568;2023-09-19T14:19:33;26.00;41.90
51476;DHT22;37554;50.362;7.568;2023-09-19T14:22:00;25.70;42.90
51476;DHT22;37554;50.362;7.568;2023-09-19T14:24:32;25.80;43.10
51476;DHT22;37554;50.362;7.568;2023-09-19T14:26:58;25.70;43.00
51476;DHT22;37554;50.362;7.568;2023-09-19T14:29:25;25.70;43.20
51476;DHT22;37554;50.362;7.568;2023-09-19T14:31:50;25.70;42.80
51476;DHT22;37554;50.362;7.568;2023-09-19T14:34:17;25.80;42.50
51476;DHT22;37554;50.362;7.568;2023-09-19T14:36:43;25.80;43.00
51476;DHT22;37554;50.362;7.568;2023-09-19T14:39:08;25.70;42.20
51476;DHT22;37554;50.362;7.568;2023-09-19T14:41:34;25.70;42.40
51476;DHT22;37554;50.362;7.568;2023-09-19T14:44:02;25.70;42.20
51476;DHT22;37554;50.362;7.568;2023-09-19T14:46:28;25.70;42.10
51476;DHT22;37554;50.362;7.568;2023-09-19T14:48:54;25.70;42.10
51476;DHT22;37554;50.362;7.568;2023-09-19T14:51:22;25.70;42.30
51476;DHT22;37554;50.362;7.568;2023-09-19T14:53:48;25.70;42.10
51476;DHT22;37554;50.362;7.568;2023-09-19T14:56:14;25.70;42.00
51476;DHT22;37554;50.362;7.568;2023-09-19T14:58:44;25.60;41.90
51476;DHT22;37554;50.362;7.568;2023-09-19T15:01:11;25.60;42.00
51476;DHT22;37554;50.362;7.568;2023-09-19T15:03:39;25.50;41.80
51476;DHT22;37554;50.362;7.568;2023-09-19T15:06:07;25.60;42.00
51476;DHT22;37554;50.362;7.568;2023-09-19T15:08:36;25.50;42.00
51476;DHT22;37554;50.362;7.568;2023-09-19T15:11:04;25.40;41.70
51476;DHT22;37554;50.362;7.568;2023-09-19T15:13:31;25.30;42.00
51476;DHT22;37554;50.362;7.568;2023-09-19T15:16:04;25.20;42.30
51476;DHT22;37554;50.362;7.568;2023-09-19T15:18:34;25.10;42.40
51476;DHT22;37554;50.362;7.568;2023-09-19T15:21:03;24.80;42.70
51476;DHT22;37554;50.362;7.568;2023-09-19T15:23:30;24.50;43.00
51476;DHT22;37554;50.362;7.568;2023-09-19T15:25:56;24.40;43.70
51476;DHT22;37554;50.362;7.568;2023-09-19T15:28:22;24.30;43.70
51476;DHT22;37554;50.362;7.568;2023-09-19T15:30:49;24.10;44.20
51476;DHT22;37554;50.362;7.568;2023-09-19T15:33:15;24.10;44.40
51476;DHT22;37554;50.362;7.568;2023-09-19T15:35:40;23.90;44.40
51476;DHT22;37554;50.362;7.568;2023-09-19T15:38:07;23.80;44.90
51476;DHT22;37554;50.362;7.568;2023-09-19T15:40:33;23.80;45.20
51476;DHT22;37554;50.362;7.568;2023-09-19T15:42:59;23.70;45.60
51476;DHT22;37554;50.362;7.568;2023-09-19T15:45:25;23.60;45.70
51476;DHT22;37554;50.362;7.568;2023-09-19T15:47:51;23.60;45.70
51476;DHT22;37554;50.362;7.568;2023-09-19T15:50:17;23.60;45.90
51476;DHT22;37554;50.362;7.568;2023-09-19T15:52:43;23.60;46.10
51476;DHT22;37554;50.362;7.568;2023-09-19T15:55:09;23.50;46.20
51476;DHT22;37554;50.362;7.568;2023-09-19T15:57:38;23.50;46.40
51476;DHT22;37554;50.362;7.568;2023-09-19T16:00:06;23.40;46.40
51476;DHT22;37554;50.362;7.568;2023-09-19T16:02:36;23.40;46.80
51476;DHT22;37554;50.362;7.568;2023-09-19T16:05:01;23.30;47.00
51476;DHT22;37554;50.362;7.568;2023-09-19T16:07:32;23.30;47.30
51476;DHT22;37554;50.362;7.568;2023-09-19T16:09:59;23.40;47.50
51476;DHT22;37554;50.362;7.568;2023-09-19T16:12:25;23.40;47.50
51476;DHT22;37554;50.362;7.568;2023-09-19T16:14:51;23.30;47.40
51476;DHT22;37554;50.362;7.568;2023-09-19T16:17:17;23.30;47.50
51476;DHT22;37554;50.362;7.568;2023-09-19T16:19:43;23.30;47.80
51476;DHT22;37554;50.362;7.568;2023-09-19T16:22:09;23.30;48.00
51476;DHT22;37554;50.362;7.568;2023-09-19T16:24:35;23.20;48.10
51476;DHT22;37554;50.362;7.568;2023-09-19T16:27:00;23.10;48.00
51476;DHT22;37554;50.362;7.568;2023-09-19T16:29:26;23.10;48.20
51476;DHT22;37554;50.362;7.568;2023-09-19T16:31:52;23.00;48.60
51476;DHT22;37554;50.362;7.568;2023-09-19T16:34:18;23.10;48.80
51476;DHT22;37554;50.362;7.568;2023-09-19T16:36:44;23.10;48.90
51476;DHT22;37554;50.362;7.568;2023-09-19T16:39:10;23.10;48.90
51476;DHT22;37554;50.362;7.568;2023-09-19T16:41:36;23.10;48.80
51476;DHT22;37554;50.362;7.568;2023-09-19T16:44:02;23.10;49.40
51476;DHT22;37554;50.362;7.568;2023-09-19T16:46:29;23.10;48.90
51476;DHT22;37554;50.362;7.568;2023-09-19T16:48:55;23.00;49.10
51476;DHT22;37554;50.362;7.568;2023-09-19T16:51:20;23.00;49.20
51476;DHT22;37554;50.362;7.568;2023-09-19T16:53:46;23.00;49.30
51476;DHT22;37554;50.362;7.568;2023-09-19T16:56:14;22.90;49.10
51476;DHT22;37554;50.362;7.568;2023-09-19T16:58:43;22.90;49.30
51476;DHT22;37554;50.362;7.568;2023-09-19T17:01:10;22.90;49.60
51476;DHT22;37554;50.362;7.568;2023-09-19T17:03:37;22.90;49.80
51476;DHT22;37554;50.362;7.568;2023-09-19T17:06:09;22.90;50.00
51476;DHT22;37554;50.362;7.568;2023-09-19T17:08:37;22.90;50.00
51476;DHT22;37554;50.362;7.568;2023-09-19T17:11:08;22.90;50.00
51476;DHT22;37554;50.362;7.568;2023-09-19T17:13:37;22.90;49.90
51476;DHT22;37554;50.362;7.568;2023-09-19T17:16:04;22.80;50.10
51476;DHT22;37554;50.362;7.568;2023-09-19T17:18:30;22.80;50.20
51476;DHT22;37554;50.362;7.568;2023-09-19T17:21:00;22.70;50.10
51476;DHT22;37554;50.362;7.568;2023-09-19T17:23:30;22.70;50.30
51476;DHT22;37554;50.362;7.568;2023-09-19T17:26:14;22.70;50.30
51476;DHT22;37554;50.362;7.568;2023-09-19T17:28:42;22.60;50.30
51476;DHT22;37554;50.362;7.568;2023-09-19T17:33:40;22.50;50.60
51476;DHT22;37554;50.362;7.568;2023-09-19T17:36:27;22.50;50.70
51476;DHT22;37554;50.362;7.568;2023-09-19T17:38:55;22.50;51.10
51476;DHT22;37554;50.362;7.568;2023-09-19T17:41:24;22.50;51.30
51476;DHT22;37554;50.362;7.568;2023-09-19T17:43:55;22.50;51.50
51476;DHT22;37554;50.362;7.568;2023-09-19T17:46:21;22.40;51.50
51476;DHT22;37554;50.362;7.568;2023-09-19T17:48:52;22.40;51.80
51476;DHT22;37554;50.362;7.568;2023-09-19T17:51:18;22.30;52.30
51476;DHT22;37554;50.362;7.568;2023-09-19T17:53:45;22.20;52.50
51476;DHT22;37554;50.362;7.568;2023-09-19T17:56:12;22.20;52.50
51476;DHT22;37554;50.362;7.568;2023-09-19T17:58:40;22.20;52.80
51476;DHT22;37554;50.362;7.568;2023-09-19T18:01:09;22.10;53.20
51476;DHT22;37554;50.362;7.568;2023-09-19T18:03:36;22.10;53.60
51476;DHT22;37554;50.362;7.568;2023-09-19T18:06:02;22.00;53.80
51476;DHT22;37554;50.362;7.568;2023-09-19T18:08:28;21.90;54.00
51476;DHT22;37554;50.362;7.568;2023-09-19T18:10:54;21.80;54.20
51476;DHT22;37554;50.362;7.568;2023-09-19T18:13:20;21.80;54.40
51476;DHT22;37554;50.362;7.568;2023-09-19T18:15:46;21.70;54.80
51476;DHT22;37554;50.362;7.568;2023-09-19T18:18:12;21.70;55.20
51476;DHT22;37554;50.362;7.568;2023-09-19T18:20:38;21.60;55.40
51476;DHT22;37554;50.362;7.568;2023-09-19T18:23:07;21.60;55.50
51476;DHT22;37554;50.362;7.568;2023-09-19T18:25:34;21.50;56.10
51476;DHT22;37554;50.362;7.568;2023-09-19T18:27:59;21.50;55.80
51476;DHT22;37554;50.362;7.568;2023-09-19T18:30:25;21.50;55.70
51476;DHT22;37554;50.362;7.568;2023-09-19T18:32:52;21.50;56.10
51476;DHT22;37554;50.362;7.568;2023-09-19T18:35:18;21.50;56.30
51476;DHT22;37554;50.362;7.568;2023-09-19T18:37:44;21.40;56.20
51476;DHT22;37554;50.362;7.568;2023-09-19T18:40:12;21.40;56.40
51476;DHT22;37554;50.362;7.568;2023-09-19T18:42:38;21.40;56.80
51476;DHT22;37554;50.362;7.568;2023-09-19T18:45:06;21.30;56.90
51476;DHT22;37554;50.362;7.568;2023-09-19T18:47:33;21.40;57.00
51476;DHT22;37554;50.362;7.568;2023-09-19T18:50:01;21.50;56.90
51476;DHT22;37554;50.362;7.568;2023-09-19T18:52:26;21.60;56.70
51476;DHT22;37554;50.362;7.568;2023-09-19T18:54:52;21.70;56.50
51476;DHT22;37554;50.362;7.568;2023-09-19T18:57:18;21.80;56.40
51476;DHT22;37554;50.362;7.568;2023-09-19T18:59:44;21.80;56.10
51476;DHT22;37554;50.362;7.568;2023-09-19T19:02:09;21.80;56.10
51476;DHT22;37554;50.362;7.568;2023-09-19T19:04:38;21.90;56.00
51476;DHT22;37554;50.362;7.568;2023-09-19T19:07:07;21.90;55.90
51476;DHT22;37554;50.362;7.568;2023-09-19T19:09:33;21.90;55.80
51476;DHT22;37554;50.362;7.568;2023-09-19T19:11:59;21.90;55.90
51476;DHT22;37554;50.362;7.568;2023-09-19T19:14:26;21.90;56.00
51476;DHT22;37554;50.362;7.568;2023-09-19T19:16:52;21.90;56.00
51476;DHT22;37554;50.362;7.568;2023-09-19T19:19:19;21.90;56.10
51476;DHT22;37554;50.362;7.568;2023-09-19T19:21:45;21.90;56.10
51476;DHT22;37554;50.362;7.568;2023-09-19T19:24:11;21.90;56.30
51476;DHT22;37554;50.362;7.568;2023-09-19T19:26:36;21.90;56.60
51476;DHT22;37554;50.362;7.568;2023-09-19T19:29:02;21.90;56.60
51476;DHT22;37554;50.362;7.568;2023-09-19T19:31:28;21.90;56.70
51476;DHT22;37554;50.362;7.568;2023-09-19T19:33:55;21.90;56.70
51476;DHT22;37554;50.362;7.568;2023-09-19T19:36:22;21.90;56.70
51476;DHT22;37554;50.362;7.568;2023-09-19T19:38:48;21.90;56.80
51476;DHT22;37554;50.362;7.568;2023-09-19T19:41:14;21.90;56.80
51476;DHT22;37554;50.362;7.568;2023-09-19T19:43:40;21.90;56.80
51476;DHT22;37554;50.362;7.568;2023-09-19T19:46:07;21.90;56.70
51476;DHT22;37554;50.362;7.568;2023-09-19T19:48:33;21.90;56.60
51476;DHT22;37554;50.362;7.568;2023-09-19T19:51:06;21.90;56.50
51476;DHT22;37554;50.362;7.568;2023-09-19T19:53:33;21.90;56.40
51476;DHT22;37554;50.362;7.568;2023-09-19T19:55:59;21.90;56.40
51476;DHT22;37554;50.362;7.568;2023-09-19T19:58:25;21.90;56.50
51476;DHT22;37554;50.362;7.568;2023-09-19T20:00:54;21.90;56.50
51476;DHT22;37554;50.362;7.568;2023-09-19T20:03:21;21.90;56.60
51476;DHT22;37554;50.362;7.568;2023-09-19T20:05:47;21.90;56.70
51476;DHT22;37554;50.362;7.568;2023-09-19T20:08:14;21.90;56.70
51476;DHT22;37554;50.362;7.568;2023-09-19T20:10:39;21.80;56.70
51476;DHT22;37554;50.362;7.568;2023-09-19T20:13:06;21.90;56.80
51476;DHT22;37554;50.362;7.568;2023-09-19T20:15:33;21.90;56.80
51476;DHT22;37554;50.362;7.568;2023-09-19T20:18:01;21.90;56.80
51476;DHT22;37554;50.362;7.568;2023-09-19T20:20:28;21.90;56.80
51476;DHT22;37554;50.362;7.568;2023-09-19T20:22:54;21.90;56.80
51476;DHT22;37554;50.362;7.568;2023-09-19T20:25:20;21.90;56.80
51476;DHT22;37554;50.362;7.568;2023-09-19T20:27:46;21.90;56.80
51476;DHT22;37554;50.362;7.568;2023-09-19T20:30:13;21.80;56.90
51476;DHT22;37554;50.362;7.568;2023-09-19T20:32:40;21.80;56.90
51476;DHT22;37554;50.362;7.568;2023-09-19T20:35:07;21.90;56.90
51476;DHT22;37554;50.362;7.568;2023-09-19T20:37:33;21.90;57.20
51476;DHT22;37554;50.362;7.568;2023-09-19T20:40:00;21.90;56.80
51476;DHT22;37554;50.362;7.568;2023-09-19T20:42:25;21.90;56.80
51476;DHT22;37554;50.362;7.568;2023-09-19T20:44:51;21.90;56.80
51476;DHT22;37554;50.362;7.568;2023-09-19T20:47:20;21.90;56.80
51476;DHT22;37554;50.362;7.568;2023-09-19T20:49:46;21.80;56.80
51476;DHT22;37554;50.362;7.568;2023-09-19T20:52:12;21.90;56.80
51476;DHT22;37554;50.362;7.568;2023-09-19T20:54:38;21.90;56.90
51476;DHT22;37554;50.362;7.568;2023-09-19T20:57:08;21.90;56.80
51476;DHT22;37554;50.362;7.568;2023-09-19T20:59:34;21.90;56.80
51476;DHT22;37554;50.362;7.568;2023-09-19T21:02:00;21.90;56.80
51476;DHT22;37554;50.362;7.568;2023-09-19T21:04:25;21.90;56.80
51476;DHT22;37554;50.362;7.568;2023-09-19T21:06:54;21.90;56.90
51476;DHT22;37554;50.362;7.568;2023-09-19T21:09:21;21.80;56.90
51476;DHT22;37554;50.362;7.568;2023-09-19T21:11:46;21.80;56.90
51476;DHT22;37554;50.362;7.568;2023-09-19T21:14:12;21.80;56.90
51476;DHT22;37554;50.362;7.568;2023-09-19T21:16:38;21.90;56.90
51476;DHT22;37554;50.362;7.568;2023-09-19T21:19:03;21.90;56.80
51476;DHT22;37554;50.362;7.568;2023-09-19T21:21:30;21.90;56.80
51476;DHT22;37554;50.362;7.568;2023-09-19T21:24:00;21.90;56.90
51476;DHT22;37554;50.362;7.568;2023-09-19T21:26:26;21.90;56.80
51476;DHT22;37554;50.362;7.568;2023-09-19T21:28:51;21.90;56.80
51476;DHT22;37554;50.362;7.568;2023-09-19T21:31:17;21.90;56.80
51476;DHT22;37554;50.362;7.568;2023-09-19T21:33:43;21.90;56.80
51476;DHT22;37554;50.362;7.568;2023-09-19T21:36:10;21.90;56.80
51476;DHT22;37554;50.362;7.568;2023-09-19T21:38:40;21.90;57.50
51476;DHT22;37554;50.362;7.568;2023-09-19T21:41:10;21.90;56.80
51476;DHT22;37554;50.362;7.568;2023-09-19T21:43:37;21.90;57.10
51476;DHT22;37554;50.362;7.568;2023-09-19T21:46:04;21.90;57.10
51476;DHT22;37554;50.362;7.568;2023-09-19T21:48:30;21.90;57.20
51476;DHT22;37554;50.362;7.568;2023-09-19T21:50:56;21.80;57.10
51476;DHT22;37554;50.362;7.568;2023-09-19T21:53:25;21.80;57.30
51476;DHT22;37554;50.362;7.568;2023-09-19T21:55:57;21.80;57.30
51476;DHT22;37554;50.362;7.568;2023-09-19T21:58:23;21.80;57.30
51476;DHT22;37554;50.362;7.568;2023-09-19T22:00:51;21.90;57.30
51476;DHT22;37554;50.362;7.568;2023-09-19T22:03:17;21.80;57.20
51476;DHT22;37554;50.362;7.568;2023-09-19T22:05:43;21.80;57.30
51476;DHT22;37554;50.362;7.568;2023-09-19T22:08:09;21.80;57.40
51476;DHT22;37554;50.362;7.568;2023-09-19T22:10:43;21.80;57.50
51476;DHT22;37554;50.362;7.568;2023-09-19T22:13:12;21.80;57.50
51476;DHT22;37554;50.362;7.568;2023-09-19T22:15:40;21.80;57.30
51476;DHT22;37554;50.362;7.568;2023-09-19T22:18:11;21.80;57.40
51476;DHT22;37554;50.362;7.568;2023-09-19T22:20:37;21.80;57.50
51476;DHT22;37554;50.362;7.568;2023-09-19T22:23:09;21.80;57.60
51476;DHT22;37554;50.362;7.568;2023-09-19T22:25:38;21.80;57.60
51476;DHT22;37554;50.362;7.568;2023-09-19T22:28:04;21.80;57.60
51476;DHT22;37554;50.362;7.568;2023-09-19T22:30:40;21.90;57.50
51476;DHT22;37554;50.362;7.568;2023-09-19T22:33:10;21.90;57.50
51476;DHT22;37554;50.362;7.568;2023-09-19T22:35:37;21.90;57.50
51476;DHT22;37554;50.362;7.568;2023-09-19T22:38:03;21.80;57.50
51476;DHT22;37554;50.362;7.568;2023-09-19T22:40:29;21.80;57.50
51476;DHT22;37554;50.362;7.568;2023-09-19T22:42:57;21.80;57.70
51476;DHT22;37554;50.362;7.568;2023-09-19T22:45:24;21.80;57.80
51476;DHT22;37554;50.362;7.568;2023-09-19T22:47:56;21.80;57.80
51476;DHT22;37554;50.362;7.568;2023-09-19T22:50:26;21.80;57.80
51476;DHT22;37554;50.362;7.568;2023-09-19T22:52:52;21.70;57.70
51476;DHT22;37554;50.362;7.568;2023-09-19T22:55:26;21.70;57.70
51476;DHT22;37554;50.362;7.568;2023-09-19T22:57:56;21.80;57.80
51476;DHT22;37554;50.362;7.568;2023-09-19T23:00:24;21.80;57.80
51476;DHT22;37554;50.362;7.568;2023-09-19T23:02:53;21.80;57.80
51476;DHT22;37554;50.362;7.568;2023-09-19T23:05:19;21.80;57.80
51476;DHT22;37554;50.362;7.568;2023-09-19T23:07:44;21.80;57.80
51476;DHT22;37554;50.362;7.568;2023-09-19T23:10:19;21.80;57.90
51476;DHT22;37554;50.362;7.568;2023-09-19T23:12:45;21.80;58.00
51476;DHT22;37554;50.362;7.568;2023-09-19T23:15:11;21.80;58.00
51476;DHT22;37554;50.362;7.568;2023-09-19T23:17:39;21.80;58.20
51476;DHT22;37554;50.362;7.568;2023-09-19T23:20:08;21.70;58.20
51476;DHT22;37554;50.362;7.568;2023-09-19T23:22:35;21.80;58.30
51476;DHT22;37554;50.362;7.568;2023-09-19T23:25:02;21.80;58.30
51476;DHT22;37554;50.362;7.568;2023-09-19T23:27:48;21.70;58.20
51476;DHT22;37554;50.362;7.568;2023-09-19T23:30:16;21.80;58.40
51476;DHT22;37554;50.362;7.568;2023-09-19T23:32:44;21.70;58.50
51476;DHT22;37554;50.362;7.568;2023-09-19T23:35:09;21.70;58.50
51476;DHT22;37554;50.362;7.568;2023-09-19T23:37:38;21.70;58.70
51476;DHT22;37554;50.362;7.568;2023-09-19T23:40:05;21.70;58.70
51476;DHT22;37554;50.362;7.568;2023-09-19T23:42:35;21.70;58.80
51476;DHT22;37554;50.362;7.568;2023-09-19T23:45:01;21.70;58.80
51476;DHT22;37554;50.362;7.568;2023-09-19T23:47:26;21.70;58.90
51476;DHT22;37554;50.362;7.568;2023-09-19T23:49:52;21.60;58.90
51476;DHT22;37554;50.362;7.568;2023-09-19T23:52:19;21.60;59.00
51476;DHT22;37554;50.362;7.568;2023-09-19T23:54:45;21.60;59.10
51476;DHT22;37554;50.362;7.568;2023-09-19T23:57:12;21.60;59.10
51476;DHT22;37554;50.362;7.568;2023-09-19T23:59:42;21.60;59.00
